createdAt,value
2022-08-05T00:00:35.345Z,4.43
2022-08-05T00:02:52.140Z,4.30
2022-08-05T00:04:55.798Z,4.00
2022-08-05T00:06:58.396Z,4.32
2022-08-05T00:09:01.922Z,3.95
2022-08-05T00:11:20.652Z,4.13
2022-08-05T00:13:38.223Z,3.85
2022-08-05T00:15:57.958Z,4.25
2022-08-05T00:18:02.502Z,4.45
2022-08-05T00:20:05.499Z,4.25
2022-08-05T00:22:11.235Z,4.05
2022-08-05T00:24:15.998Z,4.00
2022-08-05T00:26:18.520Z,3.90
2022-08-05T00:28:21.178Z,4.15
2022-08-05T00:30:32.245Z,4.40
2022-08-05T00:32:34.802Z,4.25
2022-08-05T00:34:54.216Z,4.20
2022-08-05T00:37:10.727Z,4.43
2022-08-05T00:39:15.712Z,3.92
2022-08-05T00:41:51.538Z,3.90
2022-08-05T00:43:54.457Z,4.20
2022-08-05T00:45:56.795Z,4.53
2022-08-05T00:48:05.623Z,4.43
2022-08-05T00:50:09.807Z,4.40
2022-08-05T00:52:12.031Z,4.30
2022-08-05T00:54:14.486Z,4.30
2022-08-05T00:56:22.889Z,4.40
2022-08-05T00:58:27.259Z,4.28
2022-08-05T01:00:31.456Z,4.57
2022-08-05T01:02:33.535Z,4.38
2022-08-05T01:04:36.671Z,4.38
2022-08-05T01:06:47.889Z,4.60
2022-08-05T01:08:51.173Z,4.38
2022-08-05T01:11:13.649Z,4.78
2022-08-05T01:15:57.158Z,4.85
2022-08-05T01:18:25.594Z,4.20
2022-08-05T01:21:00.628Z,3.90
2022-08-05T01:23:36.918Z,4.20
2022-08-05T01:26:13.254Z,4.50
2022-08-05T01:28:18.324Z,3.83
2022-08-05T01:30:34.707Z,4.10
2022-08-05T01:32:43.968Z,4.00
2022-08-05T01:35:10.675Z,3.85
2022-08-05T01:37:25.229Z,4.03
2022-08-05T01:39:45.711Z,4.90
2022-08-05T01:41:50.747Z,4.78
2022-08-05T01:43:57.134Z,4.05
2022-08-05T01:46:07.297Z,3.90
2022-08-05T01:48:20.020Z,4.13
2022-08-05T01:50:39.267Z,4.25
2022-08-05T01:52:49.996Z,4.22
2022-08-05T01:54:58.036Z,3.95
2022-08-05T01:58:13.083Z,4.38
2022-08-05T01:59:31.087Z,4.50
2022-08-05T02:01:40.297Z,4.10
2022-08-05T02:03:46.778Z,3.92
2022-08-05T02:05:49.894Z,4.47
2022-08-05T02:08:02.131Z,4.13
2022-08-05T02:10:07.968Z,4.03
2022-08-05T02:12:39.351Z,4.60
2022-08-05T02:14:53.811Z,4.63
2022-08-05T02:17:07.992Z,3.55
2022-08-05T02:19:34.223Z,4.03
2022-08-05T02:21:46.813Z,4.20
2022-08-05T02:23:59.498Z,4.03
2022-08-05T02:26:07.329Z,4.03
2022-08-05T02:28:14.927Z,4.55
2022-08-05T02:30:17.622Z,4.00
2022-08-05T02:32:29.202Z,4.07
2022-08-05T02:34:35.322Z,4.57
2022-08-05T02:36:44.090Z,4.22
2022-08-05T02:38:53.636Z,4.57
2022-08-05T02:40:58.036Z,4.28
2022-08-05T02:43:01.348Z,4.40
2022-08-05T02:45:05.896Z,4.60
2022-08-05T02:47:11.234Z,4.22
2022-08-05T02:49:15.887Z,4.70
2022-08-05T02:51:19.297Z,4.00
2022-08-05T02:53:35.882Z,4.35
2022-08-05T02:55:53.958Z,4.97
2022-08-05T02:58:11.772Z,4.55
2022-08-05T03:00:15.614Z,4.75
2022-08-05T03:02:24.499Z,4.65
2022-08-05T03:04:30.988Z,4.55
2022-08-05T03:06:56.735Z,4.00
2022-08-05T03:08:57.161Z,4.60
2022-08-05T03:11:56.890Z,4.70
2022-08-05T03:13:27.770Z,4.28
2022-08-05T03:15:49.751Z,4.28
2022-08-05T03:17:55.528Z,4.55
2022-08-05T03:19:59.611Z,4.45
2022-08-05T03:22:05.157Z,4.10
2022-08-05T03:24:29.447Z,4.45
2022-08-05T03:26:33.017Z,4.22
2022-08-05T03:28:35.356Z,4.10
2022-08-05T03:30:38.281Z,4.07
2022-08-05T03:32:43.964Z,4.35
2022-08-05T03:34:50.461Z,4.40
2022-08-05T03:36:53.450Z,4.60
2022-08-05T03:38:58.183Z,4.15
2022-08-05T03:41:00.931Z,4.35
2022-08-05T03:43:58.376Z,4.55
2022-08-05T03:45:57.754Z,4.38
2022-08-05T03:47:57.032Z,4.18
2022-08-05T03:50:00.663Z,4.43
2022-08-05T03:52:38.008Z,4.90
2022-08-05T03:55:53.615Z,4.43
2022-08-05T03:57:00.024Z,4.18
2022-08-05T03:59:10.055Z,4.35
2022-08-05T04:01:14.895Z,4.35
2022-08-05T04:03:28.324Z,4.07
2022-08-05T04:05:34.780Z,4.68
2022-08-05T04:07:57.510Z,4.03
2022-08-05T04:10:03.012Z,4.38
2022-08-05T04:12:23.449Z,4.28
2022-08-05T04:14:29.936Z,3.97
2022-08-05T04:16:34.597Z,4.25
2022-08-05T04:18:40.661Z,4.18
2022-08-05T04:20:43.809Z,4.15
2022-08-05T04:22:49.291Z,4.20
2022-08-05T04:24:53.143Z,4.13
2022-08-05T04:26:55.821Z,4.20
2022-08-05T04:29:07.427Z,3.83
2022-08-05T04:31:10.641Z,3.90
2022-08-05T04:33:15.822Z,3.65
2022-08-05T04:35:23.776Z,4.10
2022-08-05T04:38:02.513Z,3.53
2022-08-05T04:39:52.760Z,3.90
2022-08-05T04:41:55.533Z,3.90
2022-08-05T04:43:58.306Z,4.60
2022-08-05T04:46:02.286Z,4.05
2022-08-05T04:48:16.331Z,4.40
2022-08-05T04:50:37.413Z,4.18
2022-08-05T04:52:44.275Z,3.95
2022-08-05T04:54:47.150Z,3.95
2022-08-05T04:56:57.493Z,4.00
2022-08-05T04:59:22.192Z,4.13
2022-08-05T05:02:06.090Z,4.40
2022-08-05T05:03:49.210Z,4.03
2022-08-05T05:06:39.187Z,4.00
2022-08-05T05:08:30.191Z,3.60
2022-08-05T05:10:55.928Z,4.38
2022-08-05T05:12:59.537Z,4.40
2022-08-05T05:15:10.641Z,4.50
2022-08-05T05:17:13.489Z,4.45
2022-08-05T05:19:19.317Z,4.10
2022-08-05T05:21:27.091Z,4.40
2022-08-05T05:24:01.630Z,3.75
2022-08-05T05:26:07.846Z,4.38
2022-08-05T05:28:17.408Z,3.70
2022-08-05T05:30:29.063Z,4.82
2022-08-05T05:32:33.991Z,4.38
2022-08-05T05:34:37.814Z,4.90
2022-08-05T05:36:40.302Z,4.38
2022-08-05T05:38:45.468Z,4.63
2022-08-05T05:40:51.868Z,4.60
2022-08-05T05:42:54.721Z,4.75
2022-08-05T05:44:59.840Z,4.65
2022-08-05T05:47:22.208Z,4.57
2022-08-05T05:49:34.921Z,4.65
2022-08-05T05:51:49.695Z,4.65
2022-08-05T05:54:02.536Z,4.70
2022-08-05T05:56:13.368Z,4.85
2022-08-05T06:00:54.520Z,4.57
2022-08-05T06:02:56.567Z,4.65
2022-08-05T06:05:31.944Z,4.53
2022-08-05T06:08:07.240Z,4.40
2022-08-05T06:10:12.431Z,5.32
2022-08-05T06:12:21.556Z,4.72
2022-08-05T06:14:28.971Z,4.75
2022-08-05T06:16:37.133Z,5.80
2022-08-05T06:20:57.376Z,4.75
2022-08-05T06:23:02.113Z,4.65
2022-08-05T06:25:25.118Z,4.78
2022-08-05T06:28:10.718Z,5.25
2022-08-05T06:30:20.129Z,4.85
2022-08-05T06:32:28.708Z,5.70
2022-08-05T06:34:36.505Z,5.40
2022-08-05T06:36:57.187Z,5.28
2022-08-05T06:39:06.899Z,5.10
2022-08-05T06:41:12.648Z,5.40
2022-08-05T06:43:51.458Z,5.45
2022-08-05T06:45:44.769Z,5.47
2022-08-05T06:48:36.760Z,5.35
2022-08-05T06:50:29.350Z,5.30
2022-08-05T06:52:37.258Z,5.22
2022-08-05T06:54:42.204Z,5.30
2022-08-05T06:56:54.813Z,5.55
2022-08-05T06:59:12.696Z,5.78
2022-08-05T07:03:52.065Z,5.70
2022-08-05T07:05:55.296Z,5.18
2022-08-05T07:08:03.584Z,5.60
2022-08-05T07:10:14.889Z,5.32
2022-08-05T07:12:20.016Z,5.63
2022-08-05T07:14:34.444Z,5.90
2022-08-05T07:17:56.342Z,6.00
2022-08-05T07:18:59.383Z,5.20
2022-08-05T07:21:06.746Z,5.47
2022-08-05T07:23:26.301Z,5.80
2022-08-05T07:25:55.273Z,5.38
2022-08-05T07:28:02.740Z,5.60
2022-08-05T07:30:28.171Z,5.70
2022-08-05T07:32:40.764Z,5.38
2022-08-05T07:34:48.480Z,5.50
2022-08-05T07:37:01.374Z,5.68
2022-08-05T07:39:24.831Z,5.97
2022-08-05T07:42:12.940Z,5.45
2022-08-05T07:44:14.359Z,5.47
2022-08-05T07:46:25.240Z,5.93
2022-08-05T07:49:03.505Z,5.38
2022-08-05T07:50:53.487Z,5.88
2022-08-05T07:53:00.986Z,6.07
2022-08-05T07:55:16.093Z,5.68
2022-08-05T07:57:51.284Z,5.72
2022-08-05T07:59:57.669Z,5.97
2022-08-05T08:02:05.945Z,5.70
2022-08-05T08:04:37.683Z,5.60
2022-08-05T08:06:43.737Z,6.07
2022-08-05T08:08:48.299Z,5.47
2022-08-05T08:10:59.500Z,5.93
2022-08-05T08:13:06.357Z,5.90
2022-08-05T08:15:15.804Z,5.75
2022-08-05T08:17:19.174Z,5.93
2022-08-05T08:20:22.308Z,5.80
2022-08-05T08:21:47.461Z,5.45
2022-08-05T08:24:02.215Z,5.43
2022-08-05T08:26:07.654Z,5.57
2022-08-05T08:28:18.319Z,5.55
2022-08-05T08:30:40.719Z,5.75
2022-08-05T08:32:50.674Z,5.28
2022-08-05T08:34:59.013Z,5.80
2022-08-05T08:37:03.326Z,5.55
2022-08-05T08:39:14.971Z,5.40
2022-08-05T08:41:20.372Z,4.95
2022-08-05T08:45:58.783Z,5.82
2022-08-05T08:48:10.519Z,5.68
2022-08-05T08:50:33.018Z,4.85
2022-08-05T08:53:02.203Z,5.10
2022-08-05T08:55:19.623Z,5.25
2022-08-05T09:00:01.452Z,5.47
2022-08-05T09:02:08.708Z,4.20
2022-08-05T09:04:12.234Z,4.70
2022-08-05T09:06:21.088Z,5.32
2022-08-05T09:08:30.114Z,5.03
2022-08-05T09:10:32.953Z,5.28
2022-08-05T09:12:36.454Z,5.05
2022-08-05T09:14:58.582Z,5.43
2022-08-05T09:17:41.326Z,4.70
2022-08-05T09:20:01.934Z,5.10
2022-08-05T09:22:24.961Z,4.97
2022-08-05T09:24:39.122Z,4.53
2022-08-05T09:26:43.707Z,4.40
2022-08-05T09:28:48.837Z,4.75
2022-08-05T09:32:40.811Z,4.70
2022-08-05T09:34:07.186Z,4.20
2022-08-05T09:39:45.521Z,4.60
2022-08-05T09:42:04.918Z,4.28
2022-08-05T09:44:44.012Z,4.28
2022-08-05T09:46:51.806Z,4.18
2022-08-05T09:49:07.368Z,4.40
2022-08-05T09:51:40.068Z,4.30
2022-08-05T09:53:59.168Z,4.20
2022-08-05T09:56:28.310Z,3.80
2022-08-05T09:58:38.200Z,3.60
2022-08-05T10:01:13.744Z,3.40
2022-08-05T10:03:23.482Z,3.35
2022-08-05T10:08:35.080Z,3.65
2022-08-05T10:10:54.518Z,3.60
2022-08-05T10:13:03.152Z,3.58
2022-08-05T10:18:22.888Z,3.80
2022-08-05T10:20:38.884Z,3.90
2022-08-05T10:22:50.878Z,3.40
2022-08-05T10:25:03.844Z,4.07
2022-08-05T10:27:12.912Z,3.50
2022-08-05T10:30:40.969Z,3.40
2022-08-05T10:32:54.147Z,3.58
2022-08-05T10:34:25.863Z,3.67
2022-08-05T10:36:48.789Z,3.58
2022-08-05T10:39:24.380Z,3.17
2022-08-05T10:42:02.511Z,3.00
2022-08-05T10:44:27.430Z,3.03
2022-08-05T10:50:33.237Z,3.10
2022-08-05T10:52:51.693Z,3.10
2022-08-05T10:57:39.372Z,2.90
2022-08-05T11:05:41.492Z,3.22
2022-08-05T11:08:33.702Z,3.50
2022-08-05T11:14:03.353Z,3.85
2022-08-05T11:16:33.736Z,3.28
2022-08-05T11:20:17.376Z,4.60
2022-08-05T11:23:01.974Z,3.38
2022-08-05T11:26:05.273Z,3.30
2022-08-05T11:30:59.791Z,3.35
2022-08-05T11:33:44.053Z,3.10
2022-08-05T11:36:07.731Z,3.33
2022-08-05T11:38:30.134Z,3.85
2022-08-05T11:41:34.795Z,3.42
2022-08-05T11:44:52.946Z,3.60
2022-08-05T11:47:09.197Z,3.38
2022-08-05T11:49:36.620Z,3.50
2022-08-05T11:51:55.024Z,3.20
2022-08-05T11:54:02.115Z,3.90
2022-08-05T11:56:05.169Z,3.50
2022-08-05T11:58:32.076Z,3.50
2022-08-05T12:00:44.359Z,3.30
2022-08-05T12:02:53.593Z,3.13
2022-08-05T12:05:06.884Z,3.42
2022-08-05T12:08:08.457Z,3.33
2022-08-05T12:10:38.638Z,3.53
2022-08-05T12:12:59.191Z,4.32
2022-08-05T12:15:04.878Z,3.30
2022-08-05T12:18:00.573Z,3.63
2022-08-05T12:20:27.152Z,3.40
2022-08-05T12:22:36.479Z,3.30
2022-08-05T12:25:14.213Z,4.00
2022-08-05T12:30:15.709Z,3.40
2022-08-05T12:32:52.996Z,3.33
2022-08-05T12:37:30.025Z,3.20
2022-08-05T12:39:44.108Z,3.33
2022-08-05T12:42:14.427Z,3.28
2022-08-05T12:44:37.265Z,3.20
2022-08-05T12:47:18.613Z,3.40
2022-08-05T12:52:32.323Z,3.13
2022-08-05T12:55:47.273Z,3.47
2022-08-05T12:59:08.050Z,3.20
2022-08-05T13:02:01.084Z,3.50
2022-08-05T13:04:54.667Z,3.35
2022-08-05T13:07:17.283Z,3.35
2022-08-05T13:09:28.654Z,3.60
2022-08-05T13:12:01.255Z,3.30
2022-08-05T13:24:36.182Z,3.58
2022-08-05T13:27:03.741Z,3.20
2022-08-05T13:29:06.566Z,3.20
2022-08-05T13:31:13.943Z,3.38
2022-08-05T13:34:22.358Z,3.38
2022-08-05T13:39:24.541Z,3.35
2022-08-05T13:41:37.531Z,3.30
2022-08-05T13:43:56.425Z,3.03
2022-08-05T13:46:14.126Z,3.35
2022-08-05T13:55:09.667Z,3.40
2022-08-05T14:09:08.455Z,3.37
2022-08-05T14:12:03.908Z,3.00
2022-08-05T14:14:08.814Z,3.03
2022-08-05T14:20:27.595Z,3.08
2022-08-05T14:23:11.195Z,2.90
2022-08-05T14:29:16.705Z,2.70
2022-08-05T14:32:13.156Z,2.72
2022-08-05T14:40:35.532Z,3.00
2022-08-05T15:32:55.706Z,2.70
2022-08-05T15:35:09.784Z,2.50
2022-08-05T16:30:01.639Z,2.30
2022-08-05T17:00:25.958Z,2.25
2022-08-05T17:03:19.529Z,3.58
2022-08-05T17:12:51.928Z,3.28
2022-08-05T17:26:51.333Z,3.53
2022-08-05T17:36:33.568Z,3.53
2022-08-05T17:56:33.775Z,4.88
2022-08-05T17:58:43.719Z,4.60
2022-08-05T18:13:26.080Z,4.55
2022-08-05T18:16:03.458Z,4.90
2022-08-05T18:18:30.779Z,4.70
2022-08-05T18:20:50.378Z,4.35
2022-08-05T18:23:40.709Z,4.43
2022-08-05T18:26:13.365Z,4.32
2022-08-05T18:28:21.907Z,4.00
2022-08-05T18:30:26.209Z,4.18
2022-08-05T18:33:00.279Z,4.13
2022-08-05T18:35:05.281Z,4.22
2022-08-05T18:37:12.480Z,4.30
2022-08-05T18:39:42.423Z,4.70
2022-08-05T18:41:59.712Z,4.22
2022-08-05T18:44:06.259Z,4.00
2022-08-05T18:46:09.712Z,4.47
2022-08-05T18:48:30.264Z,4.63
2022-08-05T18:50:45.016Z,4.40
2022-08-05T18:52:55.957Z,4.50
2022-08-05T18:54:59.363Z,4.50
2022-08-05T18:57:04.117Z,4.05
2022-08-05T18:59:42.966Z,4.32
2022-08-05T19:01:57.046Z,4.18
2022-08-05T19:04:12.588Z,5.30
2022-08-05T19:06:20.089Z,5.53
2022-08-05T19:09:11.058Z,4.90
2022-08-05T19:11:28.628Z,4.75
2022-08-05T19:13:40.895Z,4.50
2022-08-05T19:15:57.870Z,4.47
2022-08-05T19:18:10.436Z,5.07
2022-08-05T19:20:15.713Z,4.53
2022-08-05T19:22:27.559Z,4.57
2022-08-05T19:24:34.720Z,5.07
2022-08-05T19:26:54.673Z,4.78
2022-08-05T19:28:58.163Z,4.68
2022-08-05T19:31:04.862Z,5.40
2022-08-05T19:33:16.902Z,4.80
2022-08-05T19:35:56.838Z,4.80
2022-08-05T19:38:06.711Z,4.82
2022-08-05T19:40:15.074Z,5.28
2022-08-05T19:42:35.391Z,5.55
2022-08-05T19:44:44.732Z,5.15
2022-08-05T19:48:54.411Z,5.10
2022-08-05T19:51:05.613Z,4.85
2022-08-05T19:53:10.846Z,4.13
2022-08-05T19:56:15.061Z,4.38
2022-08-05T19:57:57.227Z,4.00
2022-08-05T20:00:06.584Z,4.13
2022-08-05T20:02:19.950Z,3.97
2022-08-05T20:04:49.551Z,3.80
2022-08-05T20:07:47.363Z,4.10
2022-08-05T20:10:11.773Z,4.28
2022-08-05T20:12:39.042Z,4.28
2022-08-05T20:15:13.579Z,4.25
2022-08-05T20:17:24.774Z,4.10
2022-08-05T20:19:36.427Z,4.32
2022-08-05T20:21:54.558Z,4.22
2022-08-05T20:24:00.258Z,3.67
2022-08-05T20:26:32.480Z,3.72
2022-08-05T20:32:18.488Z,3.63
2022-08-05T20:38:08.310Z,3.67
2022-08-05T20:40:34.724Z,3.10
2022-08-05T20:42:47.038Z,3.40
2022-08-05T20:44:53.022Z,3.30
2022-08-05T20:47:07.615Z,3.30
2022-08-05T20:49:11.396Z,3.45
2022-08-05T20:51:15.072Z,3.40
2022-08-05T20:53:36.531Z,3.33
2022-08-05T20:55:56.816Z,3.53
2022-08-05T20:58:15.878Z,3.80
2022-08-05T21:01:04.789Z,3.50
2022-08-05T21:03:16.808Z,3.20
2022-08-05T21:05:24.182Z,3.20
2022-08-05T21:07:26.324Z,3.22
2022-08-05T21:09:53.288Z,3.00
2022-08-05T21:12:09.457Z,3.20
2022-08-05T21:17:05.489Z,3.25
2022-08-05T21:21:50.903Z,3.00
2022-08-05T21:24:26.197Z,3.17
2022-08-05T21:26:39.514Z,3.00
2022-08-05T21:28:55.599Z,3.10
2022-08-05T21:31:40.881Z,2.83
2022-08-05T21:33:47.810Z,3.03
2022-08-05T21:35:58.968Z,2.95
2022-08-05T21:38:10.039Z,3.05
2022-08-05T21:40:38.159Z,2.97
2022-08-05T21:42:59.264Z,3.08
2022-08-05T21:45:10.797Z,3.13
2022-08-05T21:47:17.513Z,3.10
2022-08-05T21:54:35.538Z,3.20
2022-08-05T22:00:01.653Z,2.90
2022-08-05T22:02:03.087Z,2.97
2022-08-05T22:04:07.840Z,2.90
2022-08-05T22:06:22.327Z,3.00
2022-08-05T22:08:29.347Z,2.80
2022-08-05T22:10:39.235Z,2.88
2022-08-05T22:12:50.608Z,2.95
2022-08-05T22:14:54.094Z,2.80
2022-08-05T22:17:04.932Z,3.00
2022-08-05T22:21:33.737Z,3.17
2022-08-05T22:24:02.402Z,3.30
2022-08-05T22:26:09.889Z,3.35
2022-08-05T22:30:44.197Z,3.40
2022-08-05T22:35:47.748Z,3.22
2022-08-05T22:37:58.753Z,3.30
2022-08-05T22:40:07.815Z,3.22
2022-08-05T22:42:15.286Z,3.20
2022-08-05T22:44:25.147Z,3.42
2022-08-05T22:46:29.274Z,3.60
2022-08-05T22:48:34.434Z,3.55
2022-08-05T22:50:37.712Z,3.30
2022-08-05T22:52:51.279Z,3.38
2022-08-05T22:54:55.076Z,3.65
2022-08-05T22:56:57.572Z,4.10
2022-08-05T22:59:04.086Z,4.22
2022-08-05T23:01:24.941Z,4.03
2022-08-05T23:06:01.713Z,4.53
2022-08-05T23:08:04.972Z,3.95
2022-08-05T23:10:08.375Z,4.03
2022-08-05T23:12:11.272Z,4.32
2022-08-05T23:14:22.588Z,4.13
2022-08-05T23:16:39.052Z,4.38
2022-08-05T23:18:46.544Z,3.88
2022-08-05T23:20:59.943Z,4.15
2022-08-05T23:23:05.713Z,4.40
2022-08-05T23:25:16.917Z,4.22
2022-08-05T23:27:22.751Z,3.97
2022-08-05T23:29:27.410Z,4.07
2022-08-05T23:31:37.273Z,4.13
2022-08-05T23:34:04.794Z,4.10
2022-08-05T23:38:07.202Z,3.70
2022-08-05T23:40:15.116Z,3.85
2022-08-05T23:42:29.173Z,4.05
2022-08-05T23:44:32.052Z,3.65
2022-08-05T23:46:34.770Z,3.78
2022-08-05T23:48:39.712Z,3.58
2022-08-05T23:50:44.652Z,3.97
2022-08-05T23:52:53.271Z,3.97
2022-08-05T23:55:08.847Z,3.83
2022-08-05T23:57:11.552Z,4.03
2022-08-05T23:59:14.071Z,3.90
